Главная страница
METAR-TAF:

METAR-TAF

Аэропорты :

Вентспилс, Латвия

широта: 57-21-28N, долгота: 021-32-39E, высота над уровнем моря: 6 м

Текущие метеонаблюдения

Эта сводка был подготовлена 9 минут назад, в 03:50 UTC
Ветер 1 Узел переменных направлений
Температура 5°C
Влажность 100%
Давление 1018 hPa
Видимость: 0650 м
туман

METAR: EVVA 180350Z AUTO VRB01KT 0650 FG NSC 05/05 Q1018

Время: 06:59 (03:59 UTC)


TAF: отсутствует

Метеонаблюдения и прогнозы для более 4000 аэропортов (сводки METAR и TAF).

Имеющиеся станции представлены на карте желтыми и красными точками.

Чтобы увидеть название станции, наведите на нее мышь.

Затем щелкните, чтобы увидеть метеонаблюдения и метеопрогнозы.

Управление картой: чтобы увеличить масштаб, щелкните зеленые кнопки с черным крестиком; чтобы уменьшить масштаб, щелкните зеленую кнопку с тире; для просмотра соседних карт щелкайте зеленые стрелки.


METAR-TAF: